createdAt,value
2023-01-26T00:01:05.919Z,9.07
2023-01-26T00:03:43.815Z,8.87
2023-01-26T00:06:17.168Z,10.33
2023-01-26T00:08:52.970Z,9.40
2023-01-26T00:11:27.506Z,9.63
2023-01-26T00:13:59.428Z,9.93
2023-01-26T00:16:34.442Z,9.00
2023-01-26T00:19:06.083Z,9.47
2023-01-26T00:21:37.606Z,10.50
2023-01-26T00:24:18.929Z,10.30
2023-01-26T00:26:53.703Z,9.33
2023-01-26T00:29:25.253Z,9.87
2023-01-26T00:31:57.224Z,9.30
2023-01-26T00:34:29.318Z,10.10
2023-01-26T00:37:01.388Z,9.73
2023-01-26T00:39:34.388Z,9.87
2023-01-26T00:42:14.766Z,10.23
2023-01-26T00:44:50.203Z,9.53
2023-01-26T00:47:22.890Z,8.57
2023-01-26T00:49:54.208Z,9.00
2023-01-26T00:52:25.234Z,9.63
2023-01-26T00:54:58.531Z,9.43
2023-01-26T00:57:30.301Z,9.20
2023-01-26T01:00:02.438Z,9.83
2023-01-26T01:02:33.854Z,8.73
2023-01-26T01:05:06.119Z,9.43
2023-01-26T01:07:37.918Z,9.20
2023-01-26T01:10:13.913Z,9.70
2023-01-26T01:12:47.856Z,11.07
2023-01-26T01:15:19.227Z,9.27
2023-01-26T01:17:59.554Z,11.37
2023-01-26T01:20:31.750Z,11.30
2023-01-26T01:23:02.685Z,9.57
2023-01-26T01:25:39.315Z,9.93
2023-01-26T01:28:13.728Z,9.30
2023-01-26T01:30:45.797Z,10.23
2023-01-26T01:33:17.063Z,10.63
2023-01-26T01:35:59.168Z,10.27
2023-01-26T01:38:30.758Z,9.67
2023-01-26T01:41:04.064Z,9.50
2023-01-26T01:43:36.020Z,9.73
2023-01-26T01:46:12.057Z,9.50
2023-01-26T01:48:52.440Z,8.93
2023-01-26T01:51:32.481Z,8.57
2023-01-26T01:54:10.503Z,10.00
2023-01-26T01:56:48.248Z,10.00
2023-01-26T01:59:21.738Z,8.63
2023-01-26T02:01:55.726Z,9.43
2023-01-26T02:04:31.208Z,9.67
2023-01-26T02:07:06.497Z,9.47
2023-01-26T02:09:58.077Z,9.80
2023-01-26T02:12:34.521Z,9.33
2023-01-26T02:15:07.080Z,8.80
2023-01-26T02:17:38.731Z,9.07
2023-01-26T02:20:19.816Z,9.77
2023-01-26T02:23:01.016Z,10.00
2023-01-26T02:25:43.354Z,9.43
2023-01-26T02:28:16.273Z,9.57
2023-01-26T02:30:51.253Z,9.30
2023-01-26T02:33:23.540Z,9.17
2023-01-26T02:35:57.114Z,9.47
2023-01-26T02:38:33.165Z,9.67
2023-01-26T02:41:09.235Z,9.80
2023-01-26T02:43:41.442Z,9.73
2023-01-26T02:46:12.958Z,8.60
2023-01-26T02:49:01.567Z,9.07
2023-01-26T02:51:32.689Z,9.07
2023-01-26T02:54:04.236Z,9.13
2023-01-26T02:56:34.704Z,9.00
2023-01-26T02:59:08.235Z,9.13
2023-01-26T03:01:42.788Z,8.77
2023-01-26T03:04:14.760Z,10.17
2023-01-26T03:06:46.496Z,9.47
2023-01-26T03:09:21.555Z,9.77
2023-01-26T03:11:53.883Z,8.73
2023-01-26T03:14:27.134Z,9.17
2023-01-26T03:16:58.434Z,9.20
2023-01-26T03:19:46.620Z,9.20
2023-01-26T03:22:34.691Z,8.43
2023-01-26T03:25:22.254Z,8.30
2023-01-26T03:27:55.885Z,8.40
2023-01-26T03:30:29.046Z,9.43
2023-01-26T03:33:00.408Z,8.10
2023-01-26T03:35:31.747Z,8.03
2023-01-26T03:38:02.003Z,7.87
2023-01-26T03:40:50.337Z,9.27
2023-01-26T03:43:37.899Z,8.47
2023-01-26T03:46:31.601Z,9.57
2023-01-26T03:49:18.811Z,8.83
2023-01-26T03:52:06.752Z,8.90
2023-01-26T03:54:54.066Z,7.63
2023-01-26T03:57:25.105Z,8.23
2023-01-26T03:59:56.921Z,9.40
2023-01-26T04:02:46.306Z,9.17
2023-01-26T04:05:34.817Z,9.30
2023-01-26T04:08:23.600Z,9.27
2023-01-26T04:10:56.455Z,9.63
2023-01-26T04:13:45.143Z,8.97
2023-01-26T04:16:33.278Z,9.80
2023-01-26T04:19:22.693Z,8.40
2023-01-26T04:21:54.451Z,8.40
2023-01-26T04:24:28.620Z,9.20
2023-01-26T04:27:00.239Z,8.57
2023-01-26T04:29:34.755Z,8.90
2023-01-26T04:32:07.934Z,8.60
2023-01-26T04:34:40.962Z,7.97
2023-01-26T04:37:16.366Z,8.90
2023-01-26T04:39:47.844Z,8.70
2023-01-26T04:42:22.111Z,9.47
2023-01-26T04:44:54.820Z,9.03
2023-01-26T04:47:28.326Z,10.00
2023-01-26T04:50:02.304Z,8.00
2023-01-26T04:52:36.599Z,8.87
2023-01-26T04:55:09.002Z,9.17
2023-01-26T04:57:40.451Z,9.90
2023-01-26T05:00:13.840Z,9.00
2023-01-26T05:02:45.887Z,8.83
2023-01-26T05:05:19.434Z,8.63
2023-01-26T05:07:51.369Z,9.57
2023-01-26T05:10:23.732Z,9.30
2023-01-26T05:12:55.356Z,9.20
2023-01-26T05:15:27.579Z,9.03
2023-01-26T05:18:01.825Z,8.40
2023-01-26T05:20:36.317Z,8.57
2023-01-26T05:23:07.793Z,8.97
2023-01-26T05:25:39.309Z,8.87
2023-01-26T05:28:11.281Z,8.47
2023-01-26T05:30:43.229Z,8.77
2023-01-26T05:33:15.241Z,8.67
2023-01-26T05:35:49.929Z,8.80
2023-01-26T05:38:21.742Z,9.03
2023-01-26T05:40:53.642Z,9.23
2023-01-26T05:43:25.305Z,8.87
2023-01-26T05:45:56.976Z,8.90
2023-01-26T05:48:28.868Z,8.67
2023-01-26T05:51:04.456Z,9.10
2023-01-26T05:53:36.270Z,9.30
2023-01-26T05:56:07.705Z,9.77
2023-01-26T05:58:39.321Z,8.20
2023-01-26T06:01:11.465Z,9.43
2023-01-26T06:03:43.236Z,9.53
2023-01-26T06:06:16.857Z,9.07
2023-01-26T06:08:48.648Z,9.60
2023-01-26T06:11:20.646Z,8.03
2023-01-26T06:13:54.738Z,8.33
2023-01-26T06:16:26.549Z,9.50
2023-01-26T06:18:58.640Z,9.30
2023-01-26T06:21:37.305Z,8.87
2023-01-26T06:24:08.989Z,9.53
2023-01-26T06:26:41.133Z,9.40
2023-01-26T06:29:13.835Z,9.77
2023-01-26T06:31:45.746Z,8.93
2023-01-26T06:34:17.603Z,9.90
2023-01-26T06:36:54.990Z,9.57
2023-01-26T06:39:26.542Z,9.33
2023-01-26T06:41:58.504Z,9.30
2023-01-26T06:44:30.169Z,10.07
2023-01-26T06:47:02.070Z,9.67
2023-01-26T06:49:33.670Z,9.27
2023-01-26T06:52:29.271Z,8.43
2023-01-26T06:55:05.816Z,8.13
2023-01-26T06:57:38.083Z,9.50
2023-01-26T07:00:10.903Z,8.80
2023-01-26T07:02:43.479Z,9.37
2023-01-26T07:05:18.234Z,9.23
2023-01-26T07:07:51.827Z,8.77
2023-01-26T07:10:23.801Z,8.57
2023-01-26T07:12:55.645Z,8.10
2023-01-26T07:15:26.602Z,9.23
2023-01-26T07:17:59.847Z,8.87
2023-01-26T07:20:32.230Z,9.57
2023-01-26T07:23:05.691Z,9.27
2023-01-26T07:25:37.547Z,8.20
2023-01-26T07:28:06.152Z,8.47
2023-01-26T07:30:34.275Z,8.60
2023-01-26T07:33:02.434Z,8.97
2023-01-26T07:35:30.914Z,8.80
2023-01-26T07:37:59.140Z,9.00
2023-01-26T07:40:28.486Z,10.03
2023-01-26T07:43:00.636Z,9.47
2023-01-26T07:45:28.977Z,9.43
2023-01-26T07:47:57.267Z,9.57
2023-01-26T07:50:27.983Z,10.60
2023-01-26T07:52:56.731Z,8.70
2023-01-26T07:55:35.805Z,8.90
2023-01-26T07:58:05.725Z,9.37
2023-01-26T08:00:33.913Z,9.17
2023-01-26T08:03:03.190Z,9.90
2023-01-26T08:05:38.515Z,8.90
2023-01-26T08:08:07.317Z,7.77
2023-01-26T08:10:37.136Z,9.13
2023-01-26T08:13:08.213Z,8.53
2023-01-26T08:15:36.191Z,9.17
2023-01-26T08:18:06.183Z,8.43
2023-01-26T08:20:34.406Z,9.70
2023-01-26T08:23:02.804Z,9.00
2023-01-26T08:25:34.075Z,8.30
2023-01-26T08:28:04.589Z,8.17
2023-01-26T08:30:34.610Z,7.67
2023-01-26T08:33:05.958Z,8.70
2023-01-26T08:35:35.054Z,7.97
2023-01-26T08:38:15.816Z,8.57
2023-01-26T08:40:44.284Z,8.60
2023-01-26T08:43:12.311Z,8.40
2023-01-26T08:45:42.276Z,8.83
2023-01-26T08:48:10.395Z,8.67
2023-01-26T08:50:38.468Z,9.50
2023-01-26T08:53:06.559Z,8.60
2023-01-26T08:55:36.426Z,8.80
2023-01-26T08:58:05.001Z,8.37
2023-01-26T09:00:33.345Z,7.60
2023-01-26T09:03:03.744Z,8.50
2023-01-26T09:05:34.960Z,7.60
2023-01-26T09:08:03.662Z,7.57
2023-01-26T09:13:29.683Z,7.60
2023-01-26T09:15:58.155Z,7.30
2023-01-26T09:18:27.727Z,7.20
2023-01-26T09:20:56.047Z,7.30
2023-01-26T09:23:24.327Z,9.47
2023-01-26T09:26:05.645Z,8.37
2023-01-26T09:28:34.963Z,7.97
2023-01-26T09:31:06.801Z,8.37
2023-01-26T09:33:36.731Z,7.60
2023-01-26T09:36:06.178Z,8.20
2023-01-26T09:38:34.515Z,9.60
2023-01-26T09:41:07.479Z,7.60
2023-01-26T09:43:41.762Z,8.03
2023-01-26T09:46:22.876Z,8.07
2023-01-26T09:49:02.617Z,8.03
2023-01-26T09:51:35.655Z,7.80
2023-01-26T09:54:17.551Z,6.83
2023-01-26T09:56:46.514Z,7.87
2023-01-26T09:59:24.497Z,8.97
2023-01-26T10:13:41.071Z,8.83
2023-01-26T10:16:25.157Z,8.90
2023-01-26T10:19:22.542Z,8.77
2023-01-26T10:22:52.384Z,8.40
2023-01-26T10:25:26.715Z,7.57
2023-01-26T10:27:55.378Z,7.57
2023-01-26T10:30:25.797Z,8.60
2023-01-26T10:32:54.554Z,9.47
2023-01-26T10:35:25.141Z,8.03
2023-01-26T10:37:54.550Z,7.73
2023-01-26T10:40:22.588Z,7.40
2023-01-26T10:42:58.539Z,8.10
2023-01-26T10:45:30.896Z,7.40
2023-01-26T10:48:19.141Z,8.70
2023-01-26T10:50:47.939Z,7.70
2023-01-26T10:53:19.254Z,7.87
2023-01-26T10:56:01.456Z,8.53
2023-01-26T10:58:44.829Z,8.73
2023-01-26T11:01:16.521Z,7.50
2023-01-26T11:03:45.272Z,8.00
2023-01-26T11:06:17.587Z,6.97
2023-01-26T11:08:45.934Z,7.17
2023-01-26T11:11:26.321Z,8.00
2023-01-26T11:14:12.871Z,8.53
2023-01-26T11:16:47.246Z,6.97
2023-01-26T11:19:21.039Z,7.93
2023-01-26T11:21:56.795Z,8.40
2023-01-26T11:24:27.761Z,8.07
2023-01-26T11:27:17.732Z,7.47
2023-01-26T11:30:03.537Z,6.47
2023-01-26T11:32:43.095Z,7.33
2023-01-26T11:35:19.616Z,8.10
2023-01-26T11:37:52.446Z,7.70
2023-01-26T11:40:38.286Z,8.30
2023-01-26T11:43:39.551Z,7.47
2023-01-26T11:46:55.734Z,8.63
2023-01-26T11:49:38.853Z,7.60
2023-01-26T11:52:16.513Z,7.67
2023-01-26T11:55:15.753Z,7.43
2023-01-26T11:58:03.996Z,7.97
2023-01-26T12:03:32.348Z,8.00
2023-01-26T12:06:11.106Z,8.30
2023-01-26T12:11:57.694Z,7.07
2023-01-26T12:17:44.721Z,8.67
2023-01-26T12:20:39.180Z,7.03
2023-01-26T12:23:35.814Z,7.03
2023-01-26T12:26:09.299Z,8.70
2023-01-26T12:34:44.170Z,7.30
2023-01-26T12:40:07.804Z,7.13
2023-01-26T12:45:43.795Z,7.37
2023-01-26T12:48:29.945Z,7.50
2023-01-26T12:54:21.156Z,8.03
2023-01-26T12:59:48.187Z,7.60
2023-01-26T13:02:30.161Z,7.47
2023-01-26T13:05:24.498Z,7.67
2023-01-26T13:07:53.131Z,7.97
2023-01-26T13:10:29.669Z,8.17
2023-01-26T13:13:01.731Z,7.67
2023-01-26T13:15:32.913Z,8.10
2023-01-26T13:18:02.275Z,6.93
2023-01-26T13:20:51.580Z,7.37
2023-01-26T13:23:43.193Z,9.13
2023-01-26T13:26:16.367Z,8.70
2023-01-26T13:28:46.871Z,8.80
2023-01-26T13:31:29.979Z,8.13
2023-01-26T13:34:02.207Z,8.23
2023-01-26T13:36:35.196Z,7.70
2023-01-26T13:39:11.796Z,7.43
2023-01-26T13:41:47.590Z,8.17
2023-01-26T13:44:22.099Z,7.60
2023-01-26T13:46:55.525Z,7.77
2023-01-26T14:11:20.450Z,8.10
2023-01-26T14:13:53.112Z,8.37
2023-01-26T14:16:29.714Z,7.23
2023-01-26T14:19:06.456Z,7.77
2023-01-26T14:21:38.224Z,6.70
2023-01-26T14:24:10.951Z,7.10
2023-01-26T14:26:39.912Z,7.27
2023-01-26T14:29:13.238Z,7.50
2023-01-26T14:31:42.870Z,6.70
2023-01-26T14:34:12.269Z,7.30
2023-01-26T14:36:40.440Z,8.17
2023-01-26T14:39:19.175Z,7.60
2023-01-26T14:41:48.491Z,8.03
2023-01-26T14:44:16.697Z,9.00
2023-01-26T14:46:54.730Z,8.40
2023-01-26T14:49:31.497Z,7.43
2023-01-26T14:52:01.577Z,8.10
2023-01-26T14:54:33.153Z,7.47
2023-01-26T14:57:02.584Z,7.87
2023-01-26T14:59:37.139Z,7.50
2023-01-26T15:02:16.684Z,7.60
2023-01-26T15:04:48.823Z,8.03
2023-01-26T15:07:41.600Z,7.40
2023-01-26T15:10:39.115Z,7.07
2023-01-26T15:13:20.058Z,7.47
2023-01-26T15:15:50.579Z,7.87
2023-01-26T15:18:21.905Z,7.40
2023-01-26T15:21:00.465Z,7.73
2023-01-26T15:23:32.052Z,8.00
2023-01-26T15:26:08.291Z,7.93
2023-01-26T15:28:37.103Z,8.30
2023-01-26T15:31:06.369Z,8.17
2023-01-26T15:33:54.677Z,7.67
2023-01-26T15:36:25.655Z,8.67
2023-01-26T15:39:01.350Z,8.13
2023-01-26T15:41:30.235Z,8.33
2023-01-26T15:43:59.526Z,8.57
2023-01-26T15:46:27.741Z,7.93
2023-01-26T15:48:57.572Z,8.40
2023-01-26T15:51:26.859Z,8.40
2023-01-26T15:53:54.993Z,9.03
2023-01-26T15:56:23.002Z,8.87
2023-01-26T15:58:51.074Z,8.87
2023-01-26T16:01:23.228Z,9.33
2023-01-26T16:03:51.856Z,8.47
2023-01-26T16:06:24.665Z,9.07
2023-01-26T16:08:53.131Z,9.07
2023-01-26T16:11:22.102Z,8.23
2023-01-26T16:14:02.485Z,8.27
2023-01-26T16:16:31.375Z,7.67
2023-01-26T16:18:59.711Z,8.33
2023-01-26T16:21:32.992Z,7.97
2023-01-26T16:24:03.642Z,7.53
2023-01-26T16:26:33.757Z,9.03
2023-01-26T16:29:01.869Z,8.90
2023-01-26T16:34:28.028Z,8.33
2023-01-26T16:36:57.857Z,8.33
2023-01-26T16:39:26.209Z,7.53
2023-01-26T16:42:09.471Z,7.07
2023-01-26T16:44:39.317Z,8.13
2023-01-26T16:47:07.687Z,6.67
2023-01-26T16:49:36.225Z,7.57
2023-01-26T16:55:00.423Z,6.77
2023-01-26T16:57:29.195Z,6.97
2023-01-26T17:00:05.460Z,7.80
2023-01-26T17:02:50.861Z,7.10
2023-01-26T17:05:23.540Z,6.63
2023-01-26T17:10:32.401Z,7.50
2023-01-26T17:16:03.884Z,6.83
2023-01-26T17:18:34.752Z,12.00
2023-01-26T17:21:03.835Z,7.17
2023-01-26T17:23:32.233Z,7.80
2023-01-26T17:26:03.923Z,7.67
2023-01-26T17:28:32.036Z,7.43
2023-01-26T17:31:01.492Z,6.80
2023-01-26T17:33:31.763Z,7.13
2023-01-26T17:36:04.523Z,7.57
2023-01-26T17:38:33.731Z,7.43
2023-01-26T17:41:03.900Z,6.97
2023-01-26T17:43:32.334Z,7.83
2023-01-26T17:46:05.686Z,6.57
2023-01-26T17:48:34.808Z,7.30
2023-01-26T17:51:05.811Z,6.67
2023-01-26T17:53:34.314Z,7.87
2023-01-26T17:56:09.105Z,7.43
2023-01-26T17:58:37.760Z,6.67
2023-01-26T18:09:18.137Z,7.40
2023-01-26T18:11:53.433Z,7.37
2023-01-26T18:14:23.257Z,7.20
2023-01-26T18:16:53.743Z,7.93
2023-01-26T18:19:24.613Z,7.40
2023-01-26T18:21:53.168Z,7.43
2023-01-26T18:24:24.111Z,7.60
2023-01-26T18:27:09.593Z,7.43
2023-01-26T18:29:37.654Z,7.37
2023-01-26T18:32:06.204Z,7.73
2023-01-26T18:34:35.217Z,8.40
2023-01-26T18:37:03.367Z,8.03
2023-01-26T18:39:33.508Z,8.60
2023-01-26T18:42:04.471Z,8.80
2023-01-26T18:47:06.577Z,7.40
2023-01-26T18:49:35.392Z,8.60
2023-01-26T18:52:03.733Z,7.33
2023-01-26T18:54:31.937Z,7.37
2023-01-26T18:57:31.376Z,7.27
2023-01-26T19:00:01.581Z,7.73
2023-01-26T19:02:34.604Z,7.63
2023-01-26T19:05:03.488Z,7.23
2023-01-26T19:07:31.988Z,7.47
2023-01-26T19:10:00.160Z,7.53
2023-01-26T19:12:29.386Z,8.13
2023-01-26T19:17:45.415Z,7.70
2023-01-26T19:20:15.554Z,6.83
2023-01-26T19:22:44.729Z,8.17
2023-01-26T19:25:14.070Z,7.07
2023-01-26T19:27:46.089Z,8.07
2023-01-26T19:30:16.794Z,8.30
2023-01-26T19:33:31.320Z,7.40
2023-01-26T19:36:13.175Z,7.97
2023-01-26T19:38:51.548Z,8.47
2023-01-26T19:41:41.747Z,7.33
2023-01-26T19:44:11.240Z,7.27
2023-01-26T19:46:49.643Z,8.67
2023-01-26T19:49:21.476Z,7.60
2023-01-26T19:51:53.857Z,7.17
2023-01-26T19:54:22.333Z,8.20
2023-01-26T19:57:16.917Z,8.07
2023-01-26T19:59:45.770Z,8.13
2023-01-26T20:02:14.074Z,7.10
2023-01-26T20:04:45.660Z,7.50
2023-01-26T20:07:14.356Z,7.97
2023-01-26T20:09:50.585Z,7.50
2023-01-26T20:12:22.192Z,7.17
2023-01-26T20:14:52.762Z,6.33
2023-01-26T20:21:01.323Z,7.77
2023-01-26T20:23:53.942Z,7.43
2023-01-26T20:26:39.718Z,7.40
2023-01-26T20:29:13.556Z,6.63
2023-01-26T20:32:06.982Z,7.20
2023-01-26T20:34:41.687Z,7.20
2023-01-26T20:40:00.165Z,6.50
2023-01-26T20:42:43.693Z,6.67
2023-01-26T20:54:16.488Z,6.67
2023-01-26T20:56:50.596Z,6.80
2023-01-26T21:00:12.280Z,7.50
2023-01-26T21:02:41.038Z,7.27
2023-01-26T21:05:10.224Z,6.43
2023-01-26T21:07:38.768Z,6.37
2023-01-26T21:10:07.644Z,6.57
2023-01-26T21:12:38.579Z,6.63
2023-01-26T21:15:08.159Z,6.00
2023-01-26T21:18:31.973Z,5.67
2023-01-26T21:21:03.396Z,7.80
2023-01-26T21:23:43.332Z,7.27
2023-01-26T21:26:13.939Z,6.40
2023-01-26T21:28:47.334Z,6.63
2023-01-26T21:31:16.437Z,7.70
2023-01-26T21:33:46.005Z,7.13
2023-01-26T21:36:17.717Z,6.30
2023-01-26T21:41:59.728Z,6.30
2023-01-26T21:44:30.802Z,6.63
2023-01-26T21:47:04.683Z,6.17
2023-01-26T21:49:32.897Z,7.20
2023-01-26T21:52:18.982Z,7.30
2023-01-26T21:54:47.113Z,6.37
2023-01-26T21:57:32.650Z,5.63
2023-01-26T22:00:02.106Z,6.90
2023-01-26T22:02:30.334Z,6.20
2023-01-26T22:04:58.637Z,6.67
2023-01-26T22:07:28.131Z,6.27
2023-01-26T22:09:56.284Z,5.93
2023-01-26T22:12:24.411Z,6.23
2023-01-26T22:14:53.053Z,6.77
2023-01-26T22:17:22.904Z,6.37
2023-01-26T22:19:51.245Z,6.53
2023-01-26T22:22:23.444Z,5.93
2023-01-26T22:24:51.856Z,6.53
2023-01-26T22:27:19.957Z,6.90
2023-01-26T22:29:48.163Z,6.03
2023-01-26T22:32:16.247Z,7.10
2023-01-26T22:34:46.043Z,5.77
2023-01-26T22:37:14.191Z,7.20
2023-01-26T22:42:25.435Z,6.13
2023-01-26T22:44:53.965Z,7.40
2023-01-26T22:47:22.188Z,7.40
2023-01-26T22:49:52.895Z,7.37
2023-01-26T22:52:21.108Z,6.53
2023-01-26T22:54:49.161Z,6.60
2023-01-26T22:57:17.529Z,7.13
2023-01-26T22:59:45.578Z,6.97
2023-01-26T23:02:14.047Z,7.60
2023-01-26T23:04:43.394Z,6.50
2023-01-26T23:07:13.067Z,7.90
2023-01-26T23:09:42.914Z,8.17
2023-01-26T23:12:11.085Z,7.33
2023-01-26T23:14:39.664Z,7.07
2023-01-26T23:17:08.221Z,7.50
2023-01-26T23:19:36.622Z,7.17
2023-01-26T23:22:04.812Z,7.13
2023-01-26T23:24:34.636Z,7.40
2023-01-26T23:27:02.726Z,7.37
2023-01-26T23:29:31.022Z,7.87
2023-01-26T23:31:59.167Z,8.13
2023-01-26T23:34:27.372Z,9.20
2023-01-26T23:36:55.402Z,7.23
2023-01-26T23:39:23.553Z,7.13
2023-01-26T23:41:53.464Z,7.50
2023-01-26T23:44:21.600Z,8.53
2023-01-26T23:52:18.483Z,7.40
2023-01-26T23:54:46.536Z,7.17
2023-01-26T23:57:15.946Z,7.57
2023-01-26T23:59:44.223Z,6.73
